^^
Paulen-Weather Station Historical Data
Daily Summary for May 18, 2022 Units:  Metric    English   Both
Daily Weekly Monthly Yearly Custom
  High: Low: Average:
Temperature: 12 °C 10 °C 11.2 °C
Dew Point: 7 °C 5 °C 6.3 °C
Humidity: 78% 64% 72%
Wind Speed: 16km/h 3km/h 9km/h
Wind Gust: 12km/h - -
Wind- - ENE
Pressure: 1024.35 hPa 1023.84 hPa -
Precipitation: 0 mm    
Historical Graphs
 
 
Tabular Data for May 18, 2022
Time Temperature Dew Point Pressure Wind Wind Speed Wind Gust Humidity Rainfall Rate (Hourly) solar
00:04 12 °C 5 °C 1024.25 hPa N 13 km/h 11 km/h 64% 0 mm 0 W/m2
00:09 12 °C 6 °C 1024.25 hPa NNE 12 km/h 11 km/h 64% 0 mm 0 W/m2
00:14 12 °C 5 °C 1024.25 hPa NNE 13 km/h 10 km/h 64% 0 mm 0 W/m2
00:19 12 °C 6 °C 1024.25 hPa ENE 11 km/h 7 km/h 65% 0 mm 0 W/m2
00:24 12 °C 6 °C 1024.25 hPa NNE 11 km/h 10 km/h 66% 0 mm 0 W/m2
00:29 12 °C 6 °C 1024.18 hPa N 16 km/h 12 km/h 66% 0 mm 0 W/m2
00:34 12 °C 6 °C 1024.21 hPa NNE 13 km/h 11 km/h 66% 0 mm 0 W/m2
00:39 12 °C 6 °C 1024.25 hPa NE 12 km/h 10 km/h 66% 0 mm 0 W/m2
00:44 12 °C 6 °C 1024.28 hPa NE 7 km/h 5 km/h 67% 0 mm 0 W/m2
00:49 12 °C 6 °C 1024.25 hPa NE 13 km/h 10 km/h 67% 0 mm 0 W/m2
00:54 12 °C 6 °C 1024.25 hPa N 14 km/h 11 km/h 68% 0 mm 0 W/m2
00:59 12 °C 6 °C 1024.21 hPa NNE 12 km/h 9 km/h 68% 0 mm 0 W/m2
01:04 12 °C 6 °C 1024.18 hPa N 12 km/h 10 km/h 69% 0 mm 0 W/m2
01:09 12 °C 7 °C 1024.18 hPa NNE 15 km/h 10 km/h 70% 0 mm 0 W/m2
01:14 12 °C 7 °C 1024.21 hPa NNE 13 km/h 10 km/h 71% 0 mm 0 W/m2
01:19 12 °C 7 °C 1024.25 hPa NNE 13 km/h 10 km/h 71% 0 mm 0 W/m2
01:24 12 °C 7 °C 1024.25 hPa NNE 12 km/h 10 km/h 71% 0 mm 0 W/m2
01:29 12 °C 7 °C 1024.25 hPa NNE 10 km/h 9 km/h 72% 0 mm 0 W/m2
01:34 12 °C 7 °C 1024.28 hPa NE 10 km/h 9 km/h 73% 0 mm 0 W/m2
01:39 11 °C 7 °C 1024.28 hPa N 10 km/h 8 km/h 73% 0 mm 0 W/m2
01:44 11 °C 7 °C 1024.35 hPa NE 9 km/h 8 km/h 72% 0 mm 0 W/m2
01:49 11 °C 6 °C 1024.35 hPa NE 9 km/h 8 km/h 71% 0 mm 0 W/m2
01:54 11 °C 6 °C 1024.31 hPa NE 7 km/h 6 km/h 71% 0 mm 0 W/m2
01:59 11 °C 6 °C 1024.31 hPa ENE 6 km/h 4 km/h 71% 0 mm 0 W/m2
02:04 11 °C 6 °C 1024.25 hPa ENE 5 km/h 5 km/h 71% 0 mm 0 W/m2
02:09 11 °C 6 °C 1024.25 hPa NNE 6 km/h 5 km/h 71% 0 mm 0 W/m2
02:14 11 °C 6 °C 1024.28 hPa N 6 km/h 6 km/h 72% 0 mm 0 W/m2
02:19 11 °C 6 °C 1024.28 hPa N 7 km/h 6 km/h 74% 0 mm 0 W/m2
02:24 11 °C 6 °C 1024.18 hPa N 7 km/h 7 km/h 73% 0 mm 0 W/m2
02:29 11 °C 6 °C 1024.15 hPa N 8 km/h 7 km/h 71% 0 mm 0 W/m2
02:34 11 °C 6 °C 1024.11 hPa NNE 8 km/h 7 km/h 71% 0 mm 0 W/m2
02:39 11 °C 6 °C 1024.15 hPa N 8 km/h 6 km/h 72% 0 mm 0 W/m2
02:44 11 °C 6 °C 1024.15 hPa N 7 km/h 7 km/h 72% 0 mm 0 W/m2
02:49 11 °C 6 °C 1024.11 hPa NNE 10 km/h 10 km/h 71% 0 mm 0 W/m2
02:54 11 °C 6 °C 1024.21 hPa NNE 8 km/h 8 km/h 72% 0 mm 0 W/m2
02:59 11 °C 6 °C 1024.11 hPa N 5 km/h 4 km/h 72% 0 mm 0 W/m2
03:04 11 °C 6 °C 1024.08 hPa NE 4 km/h 3 km/h 72% 0 mm 0 W/m2
03:09 11 °C 6 °C 1024.08 hPa NNE 3 km/h 5 km/h 72% 0 mm 0 W/m2
03:14 11 °C 6 °C 1024.18 hPa N 6 km/h 5 km/h 74% 0 mm 0 W/m2
03:19 11 °C 7 °C 1024.18 hPa NNW 8 km/h 9 km/h 76% 0 mm 0 W/m2
03:24 10 °C 7 °C 1024.11 hPa N 8 km/h 8 km/h 76% 0 mm 0 W/m2
03:29 10 °C 6 °C 1024.11 hPa N 7 km/h 7 km/h 76% 0 mm 0 W/m2
03:34 10 °C 6 °C 1024.15 hPa N 8 km/h 7 km/h 76% 0 mm 0 W/m2
03:39 10 °C 6 °C 1024.15 hPa NNE 4 km/h 3 km/h 76% 0 mm 0 W/m2
03:44 11 °C 7 °C 1024.21 hPa N 6 km/h 7 km/h 76% 0 mm 0 W/m2
03:49 11 °C 7 °C 1024.15 hPa N 7 km/h 7 km/h 78% 0 mm 0 W/m2
03:54 10 °C 7 °C 1024.18 hPa N 11 km/h 10 km/h 78% 0 mm 0 W/m2
03:59 10 °C 7 °C 1024.18 hPa N 10 km/h 10 km/h 78% 0 mm 0 W/m2
04:04 10 °C 6 °C 1024.15 hPa N 6 km/h 7 km/h 77% 0 mm 0 W/m2
04:09 10 °C 6 °C 1024.04 hPa N 8 km/h 7 km/h 77% 0 mm 0 W/m2
04:14 10 °C 7 °C 1024.01 hPa N 8 km/h 9 km/h 77% 0 mm 0 W/m2
04:19 10 °C 7 °C 1023.84 hPa NNE 7 km/h 8 km/h 77% 0 mm 0 W/m2
Compliments of Weather Underground - 2 mb